Time;durP1;ratioP1;P1;durP2;ratioP2;P2;SDS_P1;SDS_P2;PMS_P1;PMS_P2;Temp;Humidity;BMP_temperature;BMP_pressure;BME280_temperature;BME280_humidity;BME280_pressure;Samples;Min_cycle;Max_cycle;Signal;HPM_P1;HPM_P2
2022/06/27 00:01:05;;;;;;;5.03;3.30;;;;;;;20.47;69.95;99920.59;1729523;83;22179;-67
2022/06/27 00:03:37;;;;;;;3.83;2.80;;;;;;;20.46;69.92;99925.17;1713719;82;21536;-66
2022/06/27 00:06:06;;;;;;;7.57;3.50;;;;;;;20.42;70.09;99925.93;1728816;82;21029;-67
2022/06/27 00:08:34;;;;;;;5.10;3.27;;;;;;;20.37;70.43;99922.67;1729544;83;21502;-67
2022/06/27 00:11:02;;;;;;;4.40;3.45;;;;;;;20.33;70.68;99925.41;1728927;83;21528;-66
2022/06/27 00:13:28;;;;;;;4.30;3.65;;;;;;;20.30;70.96;99926.96;1729409;83;21777;-66
2022/06/27 00:15:57;;;;;;;7.25;3.83;;;;;;;20.29;70.85;99924.55;1713580;83;21472;-66
2022/06/27 00:18:24;;;;;;;4.50;3.10;;;;;;;20.28;70.78;99924.34;1728991;82;20993;-66
2022/06/27 00:20:53;;;;;;;5.92;3.80;;;;;;;20.28;71.04;99922.94;1729522;83;21072;-66
2022/06/27 00:23:21;;;;;;;5.35;3.75;;;;;;;20.27;71.10;99922.13;1712795;82;21557;-66
2022/06/27 00:25:47;;;;;;;11.83;3.47;;;;;;;20.25;71.11;99920.91;1714819;83;21099;-66
2022/06/27 00:28:17;;;;;;;6.03;3.75;;;;;;;20.21;71.33;99916.66;1729336;82;21808;-66
2022/06/27 00:30:45;;;;;;;5.00;2.85;;;;;;;20.18;71.58;99914.00;1729557;83;21021;-66
2022/06/27 00:33:13;;;;;;;6.03;3.30;;;;;;;20.15;71.77;99913.94;1714430;83;21024;-64
2022/06/27 00:35:39;;;;;;;4.25;2.90;;;;;;;20.13;71.82;99919.91;1731175;82;21050;-67
2022/06/27 00:38:06;;;;;;;3.98;3.05;;;;;;;20.10;72.02;99919.27;1726947;81;21043;-66
2022/06/27 00:40:33;;;;;;;3.87;3.25;;;;;;;20.08;72.12;99923.64;1713950;82;21793;-66
2022/06/27 00:43:00;;;;;;;3.83;3.35;;;;;;;20.06;72.07;99924.80;1731979;82;21063;-64
2022/06/27 00:45:29;;;;;;;8.25;3.58;;;;;;;20.03;72.10;99924.72;1710009;83;21084;-66
2022/06/27 00:47:56;;;;;;;6.80;3.17;;;;;;;19.98;72.27;99923.05;1713265;83;21013;-66
2022/06/27 00:50:22;;;;;;;4.08;3.47;;;;;;;19.93;72.33;99925.58;1729255;82;21056;-66
2022/06/27 00:52:49;;;;;;;6.67;3.12;;;;;;;19.90;72.49;99929.72;1720819;82;21112;-66
2022/06/27 00:55:17;;;;;;;4.47;2.92;;;;;;;19.85;72.66;99923.85;1681675;84;21089;-66
2022/06/27 00:57:44;;;;;;;3.90;3.20;;;;;;;19.85;72.78;99930.84;1696638;84;21562;-66
2022/06/27 01:00:12;;;;;;;5.22;2.90;;;;;;;19.82;72.64;99930.20;1673614;85;21047;-66
2022/06/27 01:02:39;;;;;;;7.45;3.55;;;;;;;19.80;72.72;99933.37;1689299;84;21055;-65
2022/06/27 01:05:07;;;;;;;3.20;2.90;;;;;;;19.79;72.76;99934.53;1690830;84;21109;-66
2022/06/27 01:07:36;;;;;;;4.35;3.10;;;;;;;19.76;72.83;99933.89;1689769;84;21000;-66
2022/06/27 01:10:03;;;;;;;3.80;2.70;;;;;;;19.73;72.82;99933.23;1679697;85;21565;-66
2022/06/27 01:12:33;;;;;;;3.92;3.42;;;;;;;19.70;72.85;99931.19;1685928;84;21106;-66
2022/06/27 01:15:01;;;;;;;4.85;3.70;;;;;;;19.66;72.82;99931.13;1688928;84;21100;-65
2022/06/27 01:17:29;;;;;;;3.62;2.72;;;;;;;19.63;72.74;99933.28;1679185;84;21241;-66
2022/06/27 01:19:57;;;;;;;6.50;3.10;;;;;;;19.61;72.71;99941.22;1688279;84;21118;-65
2022/06/27 01:22:24;;;;;;;4.30;3.00;;;;;;;19.57;72.96;99936.95;1688397;84;21583;-65
2022/06/27 01:24:51;;;;;;;4.28;3.27;;;;;;;19.54;73.13;99939.10;1688169;84;21005;-66
2022/06/27 01:27:18;;;;;;;4.17;3.05;;;;;;;19.54;72.92;99934.91;1684758;84;21069;-66
2022/06/27 01:29:45;;;;;;;5.70;3.22;;;;;;;19.50;73.00;99925.64;1688179;84;21576;-65
2022/06/27 01:32:11;;;;;;;3.55;3.12;;;;;;;19.48;73.16;99930.00;1688370;84;21012;-65
2022/06/27 01:34:38;;;;;;;4.87;2.92;;;;;;;19.45;73.32;99937.94;1688329;84;21009;-66
2022/06/27 01:37:06;;;;;;;4.25;3.08;;;;;;;19.43;73.39;99933.31;1698957;83;21073;-66
2022/06/27 01:39:36;;;;;;;9.43;3.25;;;;;;;19.42;73.29;99935.89;1696305;84;21019;-66
2022/06/27 01:42:03;;;;;;;4.70;3.30;;;;;;;19.41;73.26;99931.50;1696836;84;21777;-66
2022/06/27 01:44:33;;;;;;;5.45;3.50;;;;;;;19.41;73.35;99932.89;1698883;83;21059;-66
2022/06/27 01:47:06;;;;;;;3.90;3.25;;;;;;;19.43;73.39;99933.92;1696570;84;21064;-66
2022/06/27 01:49:34;;;;;;;6.47;3.70;;;;;;;19.42;73.24;99928.91;1661077;83;21141;-66
2022/06/27 01:52:01;;;;;;;4.65;4.00;;;;;;;19.44;73.24;99936.34;1697951;83;21027;-66
2022/06/27 01:54:30;;;;;;;6.50;3.45;;;;;;;19.44;73.22;99933.55;1706067;83;21460;-66
2022/06/27 01:56:57;;;;;;;3.80;3.33;;;;;;;19.46;73.28;99940.16;1680712;84;21061;-65
2022/06/27 01:59:27;;;;;;;8.93;3.12;;;;;;;19.46;73.27;99935.35;1708319;84;21665;-66
2022/06/27 02:01:58;;;;;;;6.35;3.70;;;;;;;19.45;73.34;99937.94;1714314;83;21092;-64
2022/06/27 02:04:25;;;;;;;6.10;3.35;;;;;;;19.44;73.26;99941.11;1681388;84;21067;-66
2022/06/27 02:06:54;;;;;;;5.10;3.00;;;;;;;19.43;73.36;99936.71;1718106;82;21115;-66
2022/06/27 02:09:20;;;;;;;3.27;2.90;;;;;;;19.39;73.61;99940.02;1726407;83;21084;-66
2022/06/27 02:11:49;;;;;;;4.85;3.55;;;;;;;19.35;73.73;99938.55;1714593;82;21017;-65
2022/06/27 02:14:16;;;;;;;4.33;3.75;;;;;;;19.34;73.67;99938.34;1681033;84;21079;-67
2022/06/27 02:16:43;;;;;;;4.30;2.90;;;;;;;19.33;73.64;99940.31;1713316;82;21011;-66
2022/06/27 02:19:16;;;;;;;4.17;3.17;;;;;;;19.33;73.56;99947.87;1708392;84;21127;-66
2022/06/27 02:21:43;;;;;;;7.55;3.55;;;;;;;19.31;73.67;99944.06;1714811;83;21071;-66
2022/06/27 02:24:10;;;;;;;4.42;3.27;;;;;;;19.32;73.69;99947.09;1708461;83;21059;-67
2022/06/27 02:26:38;;;;;;;5.55;3.67;;;;;;;19.32;73.58;99949.88;1708423;84;20991;-66
2022/06/27 02:29:07;;;;;;;3.83;3.52;;;;;;;19.33;73.59;99951.48;1708311;84;21504;-66
2022/06/27 02:31:34;;;;;;;4.20;3.45;;;;;;;19.34;73.64;99949.52;1710893;82;21551;-66
2022/06/27 02:34:02;;;;;;;5.10;3.95;;;;;;;19.37;73.66;99958.55;1701874;82;21028;-66
2022/06/27 02:36:36;;;;;;;5.97;3.58;;;;;;;19.38;73.58;99957.35;1714082;82;21082;-66
2022/06/27 02:39:03;;;;;;;4.83;3.70;;;;;;;19.39;73.71;99956.78;1711681;82;21059;-65
2022/06/27 02:41:37;;;;;;;6.65;3.50;;;;;;;19.40;73.75;99958.38;1703414;84;21104;-66
2022/06/27 02:44:10;;;;;;;5.70;3.70;;;;;;;19.41;73.88;99954.42;1707785;84;21841;-66
2022/06/27 02:46:38;;;;;;;5.03;3.20;;;;;;;19.40;74.26;99959.20;1707075;82;21054;-66
2022/06/27 02:49:05;;;;;;;7.72;4.78;;;;;;;19.40;74.60;99965.36;1707948;84;21103;-66
2022/06/27 02:51:36;;;;;;;7.50;4.47;;;;;;;19.40;74.82;99961.17;1708252;83;21572;-67
2022/06/27 02:54:11;;;;;;;6.97;4.70;;;;;;;19.42;74.94;99964.41;1708550;83;21336;-65
2022/06/27 02:56:47;;;;;;;5.62;4.47;;;;;;;19.46;74.95;99961.90;1711868;82;21639;-66
2022/06/27 02:59:23;;;;;;;7.90;4.60;;;;;;;19.50;74.87;99966.16;1719117;83;21489;-67
2022/06/27 03:01:50;;;;;;;7.92;5.08;;;;;;;19.56;74.82;99970.28;1709238;83;21066;-66
2022/06/27 03:04:18;;;;;;;10.63;4.70;;;;;;;19.61;74.79;99969.74;1721095;83;21044;-67
2022/06/27 03:06:49;;;;;;;18.98;5.80;;;;;;;19.65;74.67;99967.84;1706103;84;21530;-66
2022/06/27 03:09:15;;;;;;;15.98;5.35;;;;;;;19.67;74.85;99962.08;1705132;83;21132;-67
2022/06/27 03:11:43;;;;;;;16.40;5.10;;;;;;;19.70;75.00;99961.94;1709630;83;21489;-66
2022/06/27 03:14:10;;;;;;;19.07;6.17;;;;;;;19.76;75.13;99970.80;1708561;83;21038;-67
2022/06/27 03:16:38;;;;;;;29.55;5.75;;;;;;;19.82;75.17;99967.94;1710578;83;21042;-67
2022/06/27 03:19:05;;;;;;;16.55;5.45;;;;;;;19.84;75.41;99968.34;1698713;84;21110;-67
2022/06/27 03:21:42;;;;;;;20.27;5.08;;;;;;;19.89;75.53;99966.64;1705514;83;21553;-67
2022/06/27 03:24:09;;;;;;;38.38;5.75;;;;;;;19.96;75.56;99974.34;1705514;84;21086;-67
2022/06/27 03:26:35;;;;;;;21.70;6.00;;;;;;;20.02;75.53;99972.86;1694819;83;21054;-67
2022/06/27 03:29:03;;;;;;;32.00;7.42;;;;;;;20.09;75.62;99969.41;1705585;83;21555;-67
2022/06/27 03:31:31;;;;;;;12.75;3.98;;;;;;;20.16;75.59;99970.90;1710483;83;21595;-66
2022/06/27 03:33:58;;;;;;;5.25;3.52;;;;;;;20.24;75.62;99967.64;1708538;83;21820;-66
2022/06/27 03:36:36;;;;;;;10.93;4.05;;;;;;;20.33;75.61;99967.38;1705393;82;21591;-67
2022/06/27 03:39:03;;;;;;;4.42;3.50;;;;;;;20.43;75.73;99967.32;1709712;83;21020;-67
2022/06/27 03:41:29;;;;;;;5.87;3.27;;;;;;;20.53;75.57;99970.87;1709665;83;21050;-67
2022/06/27 03:43:58;;;;;;;4.92;3.42;;;;;;;20.62;75.51;99970.59;1709203;82;21546;-67
2022/06/27 03:46:25;;;;;;;3.45;3.15;;;;;;;20.72;75.23;99969.13;1710114;83;21065;-67
2022/06/27 03:51:52;;;;;;;4.30;2.70;;;;;;;20.91;74.88;99963.17;1714213;82;21117;-67
2022/06/27 03:54:19;;;;;;;9.03;4.10;;;;;;;21.02;74.77;99966.12;1693391;83;21415;-68
2022/06/27 03:56:45;;;;;;;4.90;3.22;;;;;;;21.10;74.49;99968.43;1709686;82;21063;-66
2022/06/27 03:59:13;;;;;;;11.73;3.80;;;;;;;21.20;74.15;99974.76;1710953;82;21593;-65
2022/06/27 04:01:40;;;;;;;4.75;3.00;;;;;;;21.30;73.76;99969.06;1711485;82;21028;-66
2022/06/27 04:04:06;;;;;;;6.90;3.20;;;;;;;21.40;73.55;99971.77;1721650;81;21432;-66
2022/06/27 04:06:35;;;;;;;6.75;3.17;;;;;;;21.48;73.21;99973.45;1718037;82;21601;-66
2022/06/27 04:09:03;;;;;;;4.40;3.10;;;;;;;21.55;72.83;99972.72;1719571;82;21148;-66
2022/06/27 04:11:30;;;;;;;6.97;3.35;;;;;;;21.62;72.38;99971.98;1742891;81;21467;-66
2022/06/27 04:13:58;;;;;;;6.12;3.22;;;;;;;21.69;72.38;99969.84;1738822;81;21032;-66
2022/06/27 04:16:27;;;;;;;5.60;3.47;;;;;;;21.79;71.76;99965.55;1702580;83;21528;-66
2022/06/27 04:19:01;;;;;;;6.95;3.30;;;;;;;21.91;71.31;99972.28;1696906;83;21049;-66
2022/06/27 04:21:46;;;;;;;5.17;2.85;;;;;;;22.03;70.89;99973.16;1661462;85;21114;-66
2022/06/27 04:24:20;;;;;;;8.33;3.22;;;;;;;22.12;70.23;99970.27;1671928;83;21494;-67
2022/06/27 04:26:48;;;;;;;4.92;3.08;;;;;;;22.21;70.02;99976.13;1734189;81;21061;-67
2022/06/27 04:29:15;;;;;;;5.55;2.77;;;;;;;22.29;69.58;99974.98;1724761;82;21060;-67
2022/06/27 04:31:42;;;;;;;6.05;2.98;;;;;;;22.36;69.19;99972.83;1737170;82;21048;-66
2022/06/27 04:34:12;;;;;;;3.72;2.80;;;;;;;22.42;69.06;99962.83;1737409;82;21063;-67
2022/06/27 04:36:40;;;;;;;4.05;2.52;;;;;;;22.48;68.56;99962.66;1727197;82;21100;-66
2022/06/27 04:39:08;;;;;;;7.62;2.90;;;;;;;22.54;68.27;99970.13;1721145;82;21639;-68
2022/06/27 04:41:55;;;;;;;7.20;3.05;;;;;;;22.59;67.55;99967.53;1716244;82;21143;-67
2022/06/27 04:44:25;;;;;;;4.95;2.90;;;;;;;22.65;67.30;99969.41;1708117;84;21067;-66
2022/06/27 04:46:52;;;;;;;4.28;2.70;;;;;;;22.67;67.37;99970.63;1708480;84;21075;-67
2022/06/27 04:49:25;;;;;;;12.63;3.08;;;;;;;22.70;67.62;99972.66;1707651;82;22172;-67
2022/06/27 04:51:51;;;;;;;12.63;3.87;;;;;;;22.73;67.62;99969.66;1708253;83;21050;-67
2022/06/27 04:54:18;;;;;;;7.53;3.27;;;;;;;22.80;67.68;99971.11;1715167;83;21011;-67
2022/06/27 04:56:45;;;;;;;5.33;3.27;;;;;;;22.88;67.89;99967.72;1726465;83;21069;-66
2022/06/27 04:59:12;;;;;;;4.75;3.20;;;;;;;23.01;67.45;99971.59;1712941;83;21044;-66
2022/06/27 05:01:39;;;;;;;6.58;3.17;;;;;;;23.11;66.73;99969.44;1722473;83;21249;-67
2022/06/27 05:04:11;;;;;;;5.70;3.22;;;;;;;23.22;66.02;99968.05;1709853;83;21518;-67
2022/06/27 05:06:41;;;;;;;5.25;3.55;;;;;;;23.31;65.77;99966.27;1714303;82;20936;-67
2022/06/27 05:09:07;;;;;;;6.42;2.92;;;;;;;23.38;64.89;99972.51;1726967;83;21435;-67
2022/06/27 05:11:35;;;;;;;5.22;3.12;;;;;;;23.40;64.96;99965.33;1714085;83;20945;-67
2022/06/27 05:14:02;;;;;;;8.00;3.02;;;;;;;23.41;65.10;99966.12;1707797;84;21121;-67
2022/06/27 05:16:32;;;;;;;6.65;3.52;;;;;;;23.47;65.21;99961.73;1696888;82;21063;-66
2022/06/27 05:18:58;;;;;;;4.25;3.37;;;;;;;23.54;65.69;99972.97;1681229;84;21028;-67
2022/06/27 05:21:27;;;;;;;6.03;3.20;;;;;;;23.59;65.99;99973.20;1708425;83;21055;-67
2022/06/27 05:23:54;;;;;;;5.28;3.05;;;;;;;23.65;65.59;99973.00;1708283;84;21036;-67
2022/06/27 05:26:20;;;;;;;9.23;3.20;;;;;;;23.73;65.27;99975.83;1707425;82;21132;-69
2022/06/27 05:28:48;;;;;;;4.60;3.17;;;;;;;23.81;65.10;99976.85;1708250;84;21056;-66
2022/06/27 05:31:15;;;;;;;7.28;3.42;;;;;;;23.92;64.62;99981.06;1708778;84;21079;-67
2022/06/27 05:33:42;;;;;;;7.55;3.20;;;;;;;24.00;63.90;99972.63;1708685;84;21062;-67
2022/06/27 05:36:10;;;;;;;4.90;3.50;;;;;;;24.06;64.13;99975.23;1711088;82;21016;-67
2022/06/27 05:38:39;;;;;;;4.67;3.35;;;;;;;24.15;63.71;99974.83;1716918;82;21110;-68
2022/06/27 05:41:09;;;;;;;8.33;3.37;;;;;;;24.23;63.50;99982.09;1708481;84;21020;-66
2022/06/27 05:43:36;;;;;;;8.03;2.95;;;;;;;24.31;63.32;99982.87;1710875;82;21030;-67
2022/06/27 05:46:04;;;;;;;9.08;2.95;;;;;;;24.36;63.05;99981.68;1708648;83;21563;-66
2022/06/27 05:48:33;;;;;;;8.63;3.47;;;;;;;24.41;62.53;99980.65;1704182;84;20995;-67
2022/06/27 05:51:05;;;;;;;11.45;3.52;;;;;;;24.50;62.33;99980.23;1714086;82;21154;-67
2022/06/27 05:53:34;;;;;;;6.97;3.42;;;;;;;24.56;61.74;99979.23;1726703;83;21053;-67
2022/06/27 05:56:03;;;;;;;5.45;3.45;;;;;;;24.61;61.35;99985.05;1714109;82;21539;-67
2022/06/27 05:58:33;;;;;;;12.58;3.87;;;;;;;24.54;61.76;99981.05;1725329;81;21474;-67
2022/06/27 06:01:00;;;;;;;7.30;3.45;;;;;;;24.57;62.61;99978.63;1709619;83;21080;-67
2022/06/27 06:03:28;;;;;;;3.05;2.72;;;;;;;24.68;63.11;99977.99;1711661;83;21136;-68
2022/06/27 06:05:56;;;;;;;8.90;3.47;;;;;;;24.83;62.75;99980.75;1713938;83;21022;-67
2022/06/27 06:08:25;;;;;;;26.90;4.67;;;;;;;24.95;62.56;99990.80;1722533;81;21079;-66
2022/06/27 06:10:53;;;;;;;12.33;3.12;;;;;;;25.03;61.68;99990.37;1714128;83;21062;-67
2022/06/27 06:13:22;;;;;;;8.88;3.42;;;;;;;25.07;61.74;99985.32;1722698;81;21576;-68
2022/06/27 06:15:57;;;;;;;10.40;3.98;;;;;;;25.06;61.46;99991.55;1732488;81;21248;-68
2022/06/27 06:18:24;;;;;;;5.23;3.70;;;;;;;25.03;61.44;99987.55;1718621;82;20997;-66
2022/06/27 06:20:55;;;;;;;4.83;3.83;;;;;;;25.03;61.44;99988.96;1711473;83;20996;-67
2022/06/27 06:23:25;;;;;;;6.78;3.90;;;;;;;25.08;61.65;99986.31;1698125;82;21629;-66
2022/06/27 06:25:53;;;;;;;6.28;3.70;;;;;;;25.17;61.84;99984.47;1708545;84;21003;-65
2022/06/27 06:28:21;;;;;;;7.25;3.83;;;;;;;25.26;61.57;99979.80;1707521;84;21235;-67
2022/06/27 06:30:51;;;;;;;5.28;3.05;;;;;;;25.35;61.09;99977.95;1707901;83;21056;-67
2022/06/27 06:33:17;;;;;;;9.48;3.33;;;;;;;25.39;60.53;99982.94;1708057;84;21066;-67
2022/06/27 06:35:45;;;;;;;10.95;4.60;;;;;;;25.39;60.15;99978.12;1709318;82;21098;-67
2022/06/27 06:38:12;;;;;;;51.20;7.78;;;;;;;25.42;60.52;99977.88;1708932;82;20989;-67
2022/06/27 06:40:40;;;;;;;6.78;4.10;;;;;;;25.46;60.82;99977.87;1708812;84;21265;-68
2022/06/27 06:43:07;;;;;;;5.53;3.90;;;;;;;25.50;60.72;99978.66;1711232;82;21066;-69
2022/06/27 06:45:43;;;;;;;5.42;3.65;;;;;;;25.51;60.67;99979.66;1707221;82;21061;-67
2022/06/27 06:48:17;;;;;;;11.08;4.45;;;;;;;25.52;61.11;99980.47;1648861;82;21082;-67
2022/06/27 06:50:43;;;;;;;8.03;3.60;;;;;;;25.57;61.37;99977.21;1717323;83;21047;-67
2022/06/27 06:53:11;;;;;;;13.28;4.17;;;;;;;25.63;61.12;99981.22;1703384;82;21149;-67
2022/06/27 06:55:41;;;;;;;4.65;3.12;;;;;;;25.69;60.05;99976.55;1707638;83;21090;-66
2022/06/27 06:58:10;;;;;;;8.63;3.50;;;;;;;25.75;59.97;99976.30;1715557;83;21001;-68
2022/06/27 07:00:39;;;;;;;6.03;2.92;;;;;;;25.84;59.66;99973.02;1716024;83;21051;-68
2022/06/27 07:03:08;;;;;;;4.10;2.92;;;;;;;25.88;58.49;99979.41;1716556;82;21011;-67
2022/06/27 07:05:37;;;;;;;6.80;3.30;;;;;;;25.89;58.96;99977.62;1698511;82;21052;-67
2022/06/27 07:08:04;;;;;;;4.80;3.17;;;;;;;25.95;58.80;99981.41;1722413;81;21040;-66
2022/06/27 07:10:31;;;;;;;7.17;3.42;;;;;;;25.97;58.80;99986.81;1717775;82;21001;-67
2022/06/27 07:12:57;;;;;;;6.97;3.85;;;;;;;25.99;58.27;99982.97;1717324;82;21067;-68
2022/06/27 07:15:26;;;;;;;4.05;3.27;;;;;;;25.98;58.36;99985.58;1714710;83;21099;-67
2022/06/27 07:17:55;;;;;;;10.25;3.58;;;;;;;26.02;58.80;99981.33;1719528;82;21526;-67
2022/06/27 07:20:22;;;;;;;8.03;3.80;;;;;;;26.10;58.03;99988.51;1700647;82;21034;-67
2022/06/27 07:22:50;;;;;;;8.30;3.87;;;;;;;26.17;58.43;99982.00;1727034;83;20993;-67
2022/06/27 07:25:18;;;;;;;6.37;3.05;;;;;;;26.23;57.53;99985.19;1698603;82;21133;-67
2022/06/27 07:27:46;;;;;;;7.37;3.20;;;;;;;26.29;57.74;99989.14;1698850;82;21607;-67
2022/06/27 07:30:13;;;;;;;6.42;3.08;;;;;;;26.38;57.91;99987.28;1726647;81;21137;-67
2022/06/27 07:32:42;;;;;;;8.55;3.65;;;;;;;26.45;56.68;99988.63;1701159;83;21130;-67
2022/06/27 07:35:11;;;;;;;10.63;2.95;;;;;;;26.46;55.67;99985.98;1724627;81;21088;-67
2022/06/27 07:37:44;;;;;;;3.92;2.92;;;;;;;26.49;55.73;99985.14;1706572;83;21053;-67
2022/06/27 07:40:09;;;;;;;5.25;3.20;;;;;;;26.59;56.04;99990.52;1705962;83;21042;-67
2022/06/27 07:42:41;;;;;;;49.98;6.37;;;;;;;26.70;55.43;99994.62;1700652;84;21066;-67
2022/06/27 07:45:10;;;;;;;33.88;4.28;;;;;;;26.81;55.72;99985.22;1698585;83;21004;-67
2022/06/27 07:47:38;;;;;;;32.48;5.28;;;;;;;26.92;55.19;99995.78;1701881;83;21535;-67
2022/06/27 07:50:07;;;;;;;4.05;3.27;;;;;;;27.03;54.68;99994.88;1699621;83;21042;-67
2022/06/27 07:55:24;;;;;;;8.30;3.40;;;;;;;27.18;54.24;99994.89;1693955;83;21139;-66
2022/06/27 07:57:54;;;;;;;11.12;3.35;;;;;;;27.26;53.89;99995.58;1698174;83;21043;-67
2022/06/27 08:00:24;;;;;;;5.35;3.00;;;;;;;27.36;54.49;99988.80;1697149;83;21650;-67
2022/06/27 08:02:52;;;;;;;10.23;2.98;;;;;;;27.44;53.34;99993.13;1673860;84;21545;-67
2022/06/27 08:05:19;;;;;;;9.83;3.10;;;;;;;27.53;53.81;99992.61;1692652;83;21070;-68
2022/06/27 08:07:51;;;;;;;178.25;20.27;;;;;;;27.61;52.80;99989.05;1709982;83;21563;-68
2022/06/27 08:10:20;;;;;;;9.97;3.37;;;;;;;27.67;52.69;99995.20;1700346;83;21562;-68
2022/06/27 08:12:47;;;;;;;7.50;3.33;;;;;;;27.72;52.31;99986.09;1707507;83;21465;-68
2022/06/27 08:15:17;;;;;;;11.10;3.22;;;;;;;27.76;52.36;99989.05;1698720;83;21023;-68
2022/06/27 08:17:43;;;;;;;26.30;4.83;;;;;;;27.83;52.39;99991.77;1698709;83;21112;-68
2022/06/27 08:20:12;;;;;;;27.10;4.17;;;;;;;27.89;51.12;99991.28;1697391;83;21579;-68
2022/06/27 08:22:41;;;;;;;11.97;3.45;;;;;;;27.90;51.49;99990.85;1674863;85;21449;-68
2022/06/27 08:25:08;;;;;;;37.53;5.05;;;;;;;27.98;52.31;99994.36;1689510;83;21066;-68
2022/06/27 08:27:37;;;;;;;75.95;6.28;;;;;;;28.07;51.81;99991.78;1699117;83;21506;-68
2022/06/27 08:30:06;;;;;;;16.10;4.00;;;;;;;28.14;51.61;99988.03;1698718;83;21054;-68
2022/06/27 08:32:32;;;;;;;11.73;3.72;;;;;;;28.11;50.88;99988.90;1690351;84;21469;-68
2022/06/27 08:34:59;;;;;;;10.40;3.12;;;;;;;28.07;51.40;99991.78;1687806;83;21038;-68
2022/06/27 08:37:27;;;;;;;6.00;3.55;;;;;;;28.01;51.58;99984.22;1690016;84;21009;-68
2022/06/27 08:39:55;;;;;;;26.37;4.05;;;;;;;28.03;51.83;99986.01;1689934;84;21060;-68
2022/06/27 08:42:24;;;;;;;31.65;4.25;;;;;;;28.06;51.95;99986.56;1689883;83;21037;-68
2022/06/27 08:44:53;;;;;;;14.87;3.80;;;;;;;28.11;51.97;99984.66;1686066;84;21787;-68
2022/06/27 08:47:22;;;;;;;5.37;3.30;;;;;;;28.22;51.99;99983.03;1698338;84;21003;-66
2022/06/27 08:49:52;;;;;;;10.53;3.22;;;;;;;28.36;51.99;99979.17;1686428;83;21075;-66
2022/06/27 08:52:19;;;;;;;4.67;3.05;;;;;;;28.51;52.12;99981.13;1698057;83;21477;-67
2022/06/27 08:54:47;;;;;;;5.40;2.65;;;;;;;28.70;52.95;99980.77;1695653;83;21079;-67
2022/06/27 08:57:13;;;;;;;5.05;2.85;;;;;;;28.82;50.11;99977.90;1721322;82;21218;-67
2022/06/27 08:59:44;;;;;;;6.00;3.33;;;;;;;28.89;49.47;99978.56;1721475;82;21118;-65
2022/06/27 09:02:17;;;;;;;7.50;3.10;;;;;;;28.94;49.68;99973.61;1698695;81;21610;-68
2022/06/27 09:04:58;;;;;;;6.10;2.80;;;;;;;28.95;49.29;99979.48;1730519;82;25046;-66
2022/06/27 09:07:47;;;;;;;15.88;3.67;;;;;;;28.89;49.59;99979.98;1724736;81;21009;-66
2022/06/27 09:10:39;;;;;;;4.90;2.62;;;;;;;28.80;50.04;99980.56;1720851;81;21200;-68
2022/06/27 09:13:11;;;;;;;8.33;2.83;;;;;;;28.79;48.37;99980.39;1717245;82;21055;-68
2022/06/27 09:16:00;;;;;;;7.03;3.12;;;;;;;28.75;48.35;99982.48;1707480;82;21011;-66
2022/06/27 09:18:36;;;;;;;2.72;2.52;;;;;;;28.78;48.48;99978.00;1708445;82;21115;-66
2022/06/27 09:21:09;;;;;;;10.63;3.12;;;;;;;28.84;48.52;99978.27;1708688;82;21033;-66
2022/06/27 09:23:54;;;;;;;6.47;2.42;;;;;;;28.96;50.42;99982.48;1709967;82;21243;-68
2022/06/27 09:26:29;;;;;;;8.98;3.02;;;;;;;29.14;49.20;99975.84;1707746;82;21051;-68
2022/06/27 09:29:08;;;;;;;3.47;2.70;;;;;;;29.31;47.60;99970.84;1707827;82;21054;-67
2022/06/27 09:31:45;;;;;;;3.45;2.52;;;;;;;29.36;48.21;99960.39;1713835;82;21055;-66
2022/06/27 09:34:24;;;;;;;6.28;2.47;;;;;;;29.44;47.76;99969.53;1722958;81;21286;-66
2022/06/27 09:36:59;;;;;;;11.05;2.70;;;;;;;29.57;47.50;99959.08;1708424;82;21619;-67
2022/06/27 09:39:31;;;;;;;3.17;2.30;;;;;;;29.69;47.35;99958.22;1705957;83;21067;-66
2022/06/27 09:42:10;;;;;;;3.60;2.30;;;;;;;29.83;47.06;99959.91;1725849;83;21075;-67
2022/06/27 09:44:44;;;;;;;20.75;3.92;;;;;;;29.99;46.39;99949.19;1686151;83;21564;-67
2022/06/27 09:47:35;;;;;;;7.70;2.62;;;;;;;30.06;45.10;99953.88;1724534;81;21020;-68
2022/06/27 09:50:09;;;;;;;4.37;2.70;;;;;;;30.03;44.74;99956.97;1703915;82;21108;-68
2022/06/27 09:52:39;;;;;;;4.55;2.60;;;;;;;29.96;44.60;99956.53;1722723;81;21065;-67
2022/06/27 09:55:07;;;;;;;5.22;3.20;;;;;;;29.97;45.02;99953.08;1717890;82;21872;-66
2022/06/27 09:57:35;;;;;;;5.67;2.55;;;;;;;30.01;45.05;99950.94;1726066;81;21650;-66
2022/06/27 10:00:06;;;;;;;9.63;3.10;;;;;;;30.10;45.48;99936.11;1684287;83;21544;-66
2022/06/27 10:02:37;;;;;;;6.90;3.25;;;;;;;30.21;46.21;99934.44;1718492;82;21252;-67
2022/06/27 10:05:06;;;;;;;3.72;2.00;;;;;;;30.35;46.04;99936.10;1724070;81;21107;-67
2022/06/27 10:07:34;;;;;;;5.33;2.50;;;;;;;30.48;45.37;99940.41;1714889;82;21017;-67
2022/06/27 10:10:00;;;;;;;6.28;2.25;;;;;;;30.59;44.82;99942.92;1707401;82;21042;-66
2022/06/27 10:12:37;;;;;;;8.83;2.02;;;;;;;30.65;44.34;99940.34;1706444;82;21107;-66
2022/06/27 10:15:15;;;;;;;4.35;2.02;;;;;;;30.73;43.80;99938.88;1686141;82;21310;-66
2022/06/27 10:17:46;;;;;;;4.55;2.60;;;;;;;30.87;43.56;99929.17;1711287;82;21575;-67
2022/06/27 10:20:20;;;;;;;17.50;2.90;;;;;;;31.02;43.28;99929.53;1708041;82;21082;-67
2022/06/27 10:23:26;;;;;;;9.78;3.47;;;;;;;31.11;42.32;99931.70;1708755;83;25265;-68
2022/06/27 10:25:56;;;;;;;3.85;2.52;;;;;;;31.19;43.13;99935.11;1711372;82;21051;-67
2022/06/27 10:28:23;;;;;;;6.10;2.80;;;;;;;31.27;43.73;99938.55;1708439;83;21115;-67
2022/06/27 10:30:58;;;;;;;9.70;2.92;;;;;;;31.29;43.03;99939.67;1707569;82;21089;-67
2022/06/27 10:33:31;;;;;;;5.67;2.75;;;;;;;31.15;41.14;99934.44;1709145;82;21048;-68
2022/06/27 10:36:03;;;;;;;4.35;2.55;;;;;;;30.84;41.85;99936.54;1709107;82;21073;-68
2022/06/27 10:38:44;;;;;;;9.68;2.60;;;;;;;30.63;41.54;99937.14;1707903;84;21574;-67
2022/06/27 10:41:29;;;;;;;4.85;2.52;;;;;;;30.33;41.55;99931.48;1714286;82;21095;-67
2022/06/27 10:43:59;;;;;;;3.05;2.33;;;;;;;30.10;42.31;99932.66;1726566;83;21035;-67
2022/06/27 10:46:32;;;;;;;5.78;2.25;;;;;;;30.09;43.40;99933.91;1710017;83;21095;-68
2022/06/27 10:48:58;;;;;;;3.35;2.35;;;;;;;30.19;43.63;99924.11;1711358;83;21497;-67
2022/06/27 10:51:33;;;;;;;6.95;2.30;;;;;;;30.26;43.67;99921.12;1714583;83;21634;-67
2022/06/27 10:54:07;;;;;;;4.00;2.42;;;;;;;30.28;43.13;99922.89;1726080;83;21242;-67
2022/06/27 10:56:39;;;;;;;5.58;2.80;;;;;;;30.22;42.42;99924.66;1699936;83;21048;-67
2022/06/27 10:59:22;;;;;;;4.00;2.50;;;;;;;30.17;42.76;99924.56;1708572;82;21133;-67
2022/06/27 11:01:57;;;;;;;7.78;2.40;;;;;;;30.12;42.12;99923.69;1710438;83;21013;-68
2022/06/27 11:04:36;;;;;;;6.20;2.80;;;;;;;30.09;42.39;99923.16;1706492;84;21563;-67
2022/06/27 11:07:08;;;;;;;12.07;2.42;;;;;;;30.15;42.67;99921.98;1709687;83;21838;-68
2022/06/27 11:09:47;;;;;;;6.92;2.80;;;;;;;30.25;42.77;99921.73;1729923;82;21035;-69
2022/06/27 11:12:18;;;;;;;7.60;2.37;;;;;;;30.35;42.82;99912.73;1729484;83;22167;-67
2022/06/27 11:14:57;;;;;;;4.40;2.15;;;;;;;30.44;42.69;99916.96;1729220;83;21079;-67
2022/06/27 11:17:43;;;;;;;7.40;2.22;;;;;;;30.51;42.52;99916.77;1728044;83;21107;-67
2022/06/27 11:20:24;;;;;;;4.78;2.10;;;;;;;30.63;42.29;99916.63;1728977;83;21070;-68
2022/06/27 11:22:58;;;;;;;3.42;2.20;;;;;;;30.76;41.86;99906.70;1728911;82;21044;-67
2022/06/27 11:25:27;;;;;;;3.67;2.00;;;;;;;30.83;40.20;99922.16;1729636;83;21095;-66
2022/06/27 11:31:57;;;;;;;3.20;2.05;;;;;;;30.78;38.71;99922.69;1725501;83;21068;-67
2022/06/27 11:33:27;;;;;;;3.35;2.10;;;;;;;30.69;37.50;99917.66;1728266;83;21981;-68
2022/06/27 11:35:54;;;;;;;3.70;2.15;;;;;;;30.69;38.20;99923.99;1730059;81;21063;-68
2022/06/27 11:38:27;;;;;;;4.00;1.75;;;;;;;30.71;37.60;99914.36;1716348;83;21483;-66
2022/06/27 11:41:08;;;;;;;4.17;2.12;;;;;;;30.71;37.71;99915.78;1713452;83;21064;-66
2022/06/27 11:43:52;;;;;;;7.97;1.90;;;;;;;30.78;37.48;99911.94;1725377;82;21020;-67
2022/06/27 11:46:30;;;;;;;2.47;1.67;;;;;;;30.80;37.65;99916.55;1726306;83;21155;-68
2022/06/27 11:49:09;;;;;;;2.02;1.92;;;;;;;30.79;37.09;99920.04;1728133;81;21029;-67
2022/06/27 11:51:41;;;;;;;7.15;2.00;;;;;;;30.81;37.58;99907.59;1729343;82;21082;-68
2022/06/27 11:54:15;;;;;;;2.40;2.20;;;;;;;30.88;37.12;99912.91;1707395;83;21047;-68